sensor_id;sensor_type;location;lat;lon;timestamp;temperature;humidity
29363;DHT22;16349;53.672;10.014;2024-03-08T00:01:53;1.80;99.90
29363;DHT22;16349;53.672;10.014;2024-03-08T00:04:20;1.70;99.90
29363;DHT22;16349;53.672;10.014;2024-03-08T00:06:48;1.70;99.90
29363;DHT22;16349;53.672;10.014;2024-03-08T00:09:16;1.70;99.90
29363;DHT22;16349;53.672;10.014;2024-03-08T00:11:43;1.60;99.90
29363;DHT22;16349;53.672;10.014;2024-03-08T00:14:24;1.60;99.90
29363;DHT22;16349;53.672;10.014;2024-03-08T00:16:51;1.60;99.90
29363;DHT22;16349;53.672;10.014;2024-03-08T00:19:18;1.60;99.90
29363;DHT22;16349;53.672;10.014;2024-03-08T00:21:45;1.60;99.90
29363;DHT22;16349;53.672;10.014;2024-03-08T00:24:13;1.50;99.90
29363;DHT22;16349;53.672;10.014;2024-03-08T00:26:40;1.60;99.90
29363;DHT22;16349;53.672;10.014;2024-03-08T00:29:07;1.50;99.90
29363;DHT22;16349;53.672;10.014;2024-03-08T00:31:34;1.50;99.90
29363;DHT22;16349;53.672;10.014;2024-03-08T00:34:01;1.50;99.90
29363;DHT22;16349;53.672;10.014;2024-03-08T00:36:27;1.50;99.90
29363;DHT22;16349;53.672;10.014;2024-03-08T00:38:55;1.50;99.90
29363;DHT22;16349;53.672;10.014;2024-03-08T00:41:23;1.50;99.90
29363;DHT22;16349;53.672;10.014;2024-03-08T00:43:51;1.40;99.90
29363;DHT22;16349;53.672;10.014;2024-03-08T00:46:19;1.40;99.90
29363;DHT22;16349;53.672;10.014;2024-03-08T00:48:45;1.40;99.90
29363;DHT22;16349;53.672;10.014;2024-03-08T00:51:12;1.40;99.90
29363;DHT22;16349;53.672;10.014;2024-03-08T00:53:40;1.30;99.90
29363;DHT22;16349;53.672;10.014;2024-03-08T00:56:08;1.30;99.90
29363;DHT22;16349;53.672;10.014;2024-03-08T00:58:37;1.30;99.90
29363;DHT22;16349;53.672;10.014;2024-03-08T01:01:04;1.30;99.90
29363;DHT22;16349;53.672;10.014;2024-03-08T01:03:31;1.20;99.90
29363;DHT22;16349;53.672;10.014;2024-03-08T01:05:59;1.20;99.90
29363;DHT22;16349;53.672;10.014;2024-03-08T01:08:27;1.20;99.90
29363;DHT22;16349;53.672;10.014;2024-03-08T01:10:54;1.20;99.90
29363;DHT22;16349;53.672;10.014;2024-03-08T01:13:21;1.10;99.90
29363;DHT22;16349;53.672;10.014;2024-03-08T01:15:49;1.10;99.90
29363;DHT22;16349;53.672;10.014;2024-03-08T01:18:16;1.10;99.90
29363;DHT22;16349;53.672;10.014;2024-03-08T01:20:42;1.10;99.90
29363;DHT22;16349;53.672;10.014;2024-03-08T01:23:10;1.00;99.90
29363;DHT22;16349;53.672;10.014;2024-03-08T01:25:36;1.00;99.90
29363;DHT22;16349;53.672;10.014;2024-03-08T01:28:04;1.00;99.90
29363;DHT22;16349;53.672;10.014;2024-03-08T01:30:30;1.00;99.90
29363;DHT22;16349;53.672;10.014;2024-03-08T01:33:01;1.00;99.90
29363;DHT22;16349;53.672;10.014;2024-03-08T01:35:28;1.00;99.90
29363;DHT22;16349;53.672;10.014;2024-03-08T01:37:55;1.00;99.90
29363;DHT22;16349;53.672;10.014;2024-03-08T01:40:22;0.90;99.90
29363;DHT22;16349;53.672;10.014;2024-03-08T01:42:49;0.90;99.90
29363;DHT22;16349;53.672;10.014;2024-03-08T01:45:16;0.90;99.90
29363;DHT22;16349;53.672;10.014;2024-03-08T01:47:42;0.80;99.90
29363;DHT22;16349;53.672;10.014;2024-03-08T01:50:11;0.80;99.90
29363;DHT22;16349;53.672;10.014;2024-03-08T01:52:38;0.80;99.90
29363;DHT22;16349;53.672;10.014;2024-03-08T01:55:06;0.80;99.90
29363;DHT22;16349;53.672;10.014;2024-03-08T01:57:34;0.70;99.90
29363;DHT22;16349;53.672;10.014;2024-03-08T02:00:02;0.70;99.90
29363;DHT22;16349;53.672;10.014;2024-03-08T02:02:32;0.70;99.90
29363;DHT22;16349;53.672;10.014;2024-03-08T02:05:00;0.70;99.90
29363;DHT22;16349;53.672;10.014;2024-03-08T02:07:28;0.70;99.90
29363;DHT22;16349;53.672;10.014;2024-03-08T02:09:55;0.70;99.90
29363;DHT22;16349;53.672;10.014;2024-03-08T02:12:22;0.70;99.90
29363;DHT22;16349;53.672;10.014;2024-03-08T02:14:49;0.70;99.90
29363;DHT22;16349;53.672;10.014;2024-03-08T02:17:16;0.70;99.90
29363;DHT22;16349;53.672;10.014;2024-03-08T02:19:43;0.60;99.90
29363;DHT22;16349;53.672;10.014;2024-03-08T02:22:11;0.60;99.90
29363;DHT22;16349;53.672;10.014;2024-03-08T02:24:38;0.60;99.90
29363;DHT22;16349;53.672;10.014;2024-03-08T02:27:05;0.60;99.90
29363;DHT22;16349;53.672;10.014;2024-03-08T02:29:33;0.60;99.90
29363;DHT22;16349;53.672;10.014;2024-03-08T02:32:00;0.60;99.90
29363;DHT22;16349;53.672;10.014;2024-03-08T02:34:28;0.60;99.90
29363;DHT22;16349;53.672;10.014;2024-03-08T02:36:57;0.60;99.90
29363;DHT22;16349;53.672;10.014;2024-03-08T02:39:25;0.60;99.90
29363;DHT22;16349;53.672;10.014;2024-03-08T02:41:53;0.60;99.90
29363;DHT22;16349;53.672;10.014;2024-03-08T02:44:20;0.60;99.90
29363;DHT22;16349;53.672;10.014;2024-03-08T02:46:47;0.50;99.90
29363;DHT22;16349;53.672;10.014;2024-03-08T02:49:14;0.50;99.90
29363;DHT22;16349;53.672;10.014;2024-03-08T02:51:41;0.50;99.90
29363;DHT22;16349;53.672;10.014;2024-03-08T02:54:08;0.50;99.90
29363;DHT22;16349;53.672;10.014;2024-03-08T02:56:37;0.50;99.90
29363;DHT22;16349;53.672;10.014;2024-03-08T02:59:03;0.40;99.90
29363;DHT22;16349;53.672;10.014;2024-03-08T03:01:30;0.40;99.90
29363;DHT22;16349;53.672;10.014;2024-03-08T03:03:58;0.40;99.90
29363;DHT22;16349;53.672;10.014;2024-03-08T03:06:24;0.40;99.90
29363;DHT22;16349;53.672;10.014;2024-03-08T03:08:51;0.40;99.90
29363;DHT22;16349;53.672;10.014;2024-03-08T03:11:19;0.40;99.90
29363;DHT22;16349;53.672;10.014;2024-03-08T03:13:47;0.40;99.90
29363;DHT22;16349;53.672;10.014;2024-03-08T03:16:17;0.40;99.90
29363;DHT22;16349;53.672;10.014;2024-03-08T03:18:45;0.40;99.90
29363;DHT22;16349;53.672;10.014;2024-03-08T03:21:12;0.40;99.90
29363;DHT22;16349;53.672;10.014;2024-03-08T03:23:39;0.40;99.90
29363;DHT22;16349;53.672;10.014;2024-03-08T03:26:07;0.40;99.90
29363;DHT22;16349;53.672;10.014;2024-03-08T03:28:36;0.40;99.90
29363;DHT22;16349;53.672;10.014;2024-03-08T03:31:06;0.40;99.90
29363;DHT22;16349;53.672;10.014;2024-03-08T03:33:33;0.30;99.90
29363;DHT22;16349;53.672;10.014;2024-03-08T03:36:02;0.30;99.90
29363;DHT22;16349;53.672;10.014;2024-03-08T03:38:30;0.30;99.90
29363;DHT22;16349;53.672;10.014;2024-03-08T03:40:57;0.30;99.90
29363;DHT22;16349;53.672;10.014;2024-03-08T03:43:30;0.30;99.90
29363;DHT22;16349;53.672;10.014;2024-03-08T03:45:57;0.20;99.90
29363;DHT22;16349;53.672;10.014;2024-03-08T03:48:25;0.30;99.90
29363;DHT22;16349;53.672;10.014;2024-03-08T03:50:51;0.30;99.90
29363;DHT22;16349;53.672;10.014;2024-03-08T03:53:22;0.30;99.90
29363;DHT22;16349;53.672;10.014;2024-03-08T03:55:49;0.20;99.90
29363;DHT22;16349;53.672;10.014;2024-03-08T03:58:15;0.20;99.90
29363;DHT22;16349;53.672;10.014;2024-03-08T04:00:47;0.20;99.90
29363;DHT22;16349;53.672;10.014;2024-03-08T04:03:14;0.20;99.90
29363;DHT22;16349;53.672;10.014;2024-03-08T04:05:43;0.20;99.90
29363;DHT22;16349;53.672;10.014;2024-03-08T04:08:10;0.20;99.90
29363;DHT22;16349;53.672;10.014;2024-03-08T04:10:37;0.20;99.90
29363;DHT22;16349;53.672;10.014;2024-03-08T04:13:04;0.20;99.90
29363;DHT22;16349;53.672;10.014;2024-03-08T04:15:31;0.10;99.90
29363;DHT22;16349;53.672;10.014;2024-03-08T04:17:57;0.10;99.90
29363;DHT22;16349;53.672;10.014;2024-03-08T04:20:26;0.10;99.90
29363;DHT22;16349;53.672;10.014;2024-03-08T04:22:54;0.20;99.90
29363;DHT22;16349;53.672;10.014;2024-03-08T04:25:21;0.10;99.90
29363;DHT22;16349;53.672;10.014;2024-03-08T04:27:48;0.10;99.90
29363;DHT22;16349;53.672;10.014;2024-03-08T04:30:15;0.10;99.90
29363;DHT22;16349;53.672;10.014;2024-03-08T04:32:42;0.10;99.90
29363;DHT22;16349;53.672;10.014;2024-03-08T04:35:09;0.00;99.90
29363;DHT22;16349;53.672;10.014;2024-03-08T04:37:38;0.10;99.90
29363;DHT22;16349;53.672;10.014;2024-03-08T04:40:07;0.00;99.90
29363;DHT22;16349;53.672;10.014;2024-03-08T04:42:35;0.00;99.90
29363;DHT22;16349;53.672;10.014;2024-03-08T04:45:04;0.10;99.90
29363;DHT22;16349;53.672;10.014;2024-03-08T04:47:31;0.00;99.90
29363;DHT22;16349;53.672;10.014;2024-03-08T04:49:58;0.00;99.90
29363;DHT22;16349;53.672;10.014;2024-03-08T04:52:25;0.00;99.90
29363;DHT22;16349;53.672;10.014;2024-03-08T04:54:53;0.00;99.90
29363;DHT22;16349;53.672;10.014;2024-03-08T04:57:21;-0.10;99.90
29363;DHT22;16349;53.672;10.014;2024-03-08T04:59:48;0.00;99.90
29363;DHT22;16349;53.672;10.014;2024-03-08T05:02:14;0.00;99.90
29363;DHT22;16349;53.672;10.014;2024-03-08T05:04:41;-0.10;99.90
29363;DHT22;16349;53.672;10.014;2024-03-08T05:07:08;-0.10;99.90
29363;DHT22;16349;53.672;10.014;2024-03-08T05:09:35;0.00;99.90
29363;DHT22;16349;53.672;10.014;2024-03-08T05:12:03;0.00;99.90
29363;DHT22;16349;53.672;10.014;2024-03-08T05:14:31;0.00;99.90
29363;DHT22;16349;53.672;10.014;2024-03-08T05:17:00;0.00;99.90
29363;DHT22;16349;53.672;10.014;2024-03-08T05:19:27;0.00;99.90
29363;DHT22;16349;53.672;10.014;2024-03-08T05:21:55;0.00;99.90
29363;DHT22;16349;53.672;10.014;2024-03-08T05:24:22;0.00;99.90
29363;DHT22;16349;53.672;10.014;2024-03-08T05:26:49;0.00;99.90
29363;DHT22;16349;53.672;10.014;2024-03-08T05:29:16;-0.10;99.90
29363;DHT22;16349;53.672;10.014;2024-03-08T05:31:48;-0.10;99.90
29363;DHT22;16349;53.672;10.014;2024-03-08T05:34:15;0.00;99.90
29363;DHT22;16349;53.672;10.014;2024-03-08T05:36:42;-0.10;99.90
29363;DHT22;16349;53.672;10.014;2024-03-08T05:39:10;-0.10;99.90
29363;DHT22;16349;53.672;10.014;2024-03-08T05:41:37;-0.10;99.90
29363;DHT22;16349;53.672;10.014;2024-03-08T05:44:04;-0.10;99.90
29363;DHT22;16349;53.672;10.014;2024-03-08T05:46:31;-0.10;99.90
29363;DHT22;16349;53.672;10.014;2024-03-08T05:49:00;-0.10;99.90
29363;DHT22;16349;53.672;10.014;2024-03-08T05:51:30;-0.10;99.90
29363;DHT22;16349;53.672;10.014;2024-03-08T05:53:58;-0.10;99.90
29363;DHT22;16349;53.672;10.014;2024-03-08T05:56:26;-0.20;99.90
29363;DHT22;16349;53.672;10.014;2024-03-08T05:58:54;-0.20;99.90
29363;DHT22;16349;53.672;10.014;2024-03-08T06:01:22;-0.20;99.90
29363;DHT22;16349;53.672;10.014;2024-03-08T06:03:49;-0.20;99.90
29363;DHT22;16349;53.672;10.014;2024-03-08T06:06:17;-0.10;99.90
29363;DHT22;16349;53.672;10.014;2024-03-08T06:08:44;-0.10;99.90
29363;DHT22;16349;53.672;10.014;2024-03-08T06:11:13;-0.10;99.90
29363;DHT22;16349;53.672;10.014;2024-03-08T06:13:40;-0.10;99.90
29363;DHT22;16349;53.672;10.014;2024-03-08T06:16:07;-0.10;99.90
29363;DHT22;16349;53.672;10.014;2024-03-08T06:18:34;-0.10;99.90
29363;DHT22;16349;53.672;10.014;2024-03-08T06:21:02;-0.10;99.90
29363;DHT22;16349;53.672;10.014;2024-03-08T06:23:32;-0.10;99.90
29363;DHT22;16349;53.672;10.014;2024-03-08T06:25:59;-0.10;99.90
29363;DHT22;16349;53.672;10.014;2024-03-08T06:28:26;-0.10;99.90
29363;DHT22;16349;53.672;10.014;2024-03-08T06:30:53;-0.10;99.90
29363;DHT22;16349;53.672;10.014;2024-03-08T06:33:20;-0.10;99.90
29363;DHT22;16349;53.672;10.014;2024-03-08T06:35:46;-0.10;99.90
29363;DHT22;16349;53.672;10.014;2024-03-08T06:38:13;-0.10;99.90
29363;DHT22;16349;53.672;10.014;2024-03-08T06:40:44;0.00;99.90
29363;DHT22;16349;53.672;10.014;2024-03-08T06:43:13;0.00;99.90
29363;DHT22;16349;53.672;10.014;2024-03-08T06:45:41;0.00;99.90
29363;DHT22;16349;53.672;10.014;2024-03-08T06:48:14;0.00;99.90
29363;DHT22;16349;53.672;10.014;2024-03-08T06:50:41;0.10;99.90
29363;DHT22;16349;53.672;10.014;2024-03-08T06:53:07;0.10;99.90
29363;DHT22;16349;53.672;10.014;2024-03-08T06:55:34;0.10;99.90
29363;DHT22;16349;53.672;10.014;2024-03-08T06:58:03;0.10;99.90
29363;DHT22;16349;53.672;10.014;2024-03-08T07:00:30;0.20;99.90
29363;DHT22;16349;53.672;10.014;2024-03-08T07:02:57;0.20;99.90
29363;DHT22;16349;53.672;10.014;2024-03-08T07:05:26;0.20;99.90
29363;DHT22;16349;53.672;10.014;2024-03-08T07:07:53;0.20;99.90
29363;DHT22;16349;53.672;10.014;2024-03-08T07:10:20;0.30;99.90
29363;DHT22;16349;53.672;10.014;2024-03-08T07:12:49;0.30;99.90
29363;DHT22;16349;53.672;10.014;2024-03-08T07:15:17;0.40;99.90
29363;DHT22;16349;53.672;10.014;2024-03-08T07:17:53;0.40;99.90
29363;DHT22;16349;53.672;10.014;2024-03-08T07:20:21;0.50;99.90
29363;DHT22;16349;53.672;10.014;2024-03-08T07:22:48;0.50;99.90
29363;DHT22;16349;53.672;10.014;2024-03-08T07:25:17;0.60;99.90
29363;DHT22;16349;53.672;10.014;2024-03-08T07:27:47;0.60;99.90
29363;DHT22;16349;53.672;10.014;2024-03-08T07:30:14;0.70;99.90
29363;DHT22;16349;53.672;10.014;2024-03-08T07:33:05;0.80;99.90
29363;DHT22;16349;53.672;10.014;2024-03-08T07:35:32;0.90;99.90
29363;DHT22;16349;53.672;10.014;2024-03-08T07:38:03;0.90;99.90
29363;DHT22;16349;53.672;10.014;2024-03-08T07:40:31;1.00;99.90
29363;DHT22;16349;53.672;10.014;2024-03-08T07:42:57;1.00;99.90
29363;DHT22;16349;53.672;10.014;2024-03-08T07:45:24;1.10;99.90
29363;DHT22;16349;53.672;10.014;2024-03-08T07:47:51;1.20;99.90
29363;DHT22;16349;53.672;10.014;2024-03-08T07:50:20;1.20;99.90
29363;DHT22;16349;53.672;10.014;2024-03-08T07:52:48;1.30;99.90
29363;DHT22;16349;53.672;10.014;2024-03-08T07:55:15;1.30;99.90
29363;DHT22;16349;53.672;10.014;2024-03-08T07:57:42;1.40;99.90
29363;DHT22;16349;53.672;10.014;2024-03-08T08:00:10;1.50;99.90
29363;DHT22;16349;53.672;10.014;2024-03-08T08:02:37;1.60;99.90
29363;DHT22;16349;53.672;10.014;2024-03-08T08:05:03;1.60;99.90
29363;DHT22;16349;53.672;10.014;2024-03-08T08:07:31;1.70;99.90
29363;DHT22;16349;53.672;10.014;2024-03-08T08:09:58;1.80;99.90
29363;DHT22;16349;53.672;10.014;2024-03-08T08:12:25;1.80;99.90
29363;DHT22;16349;53.672;10.014;2024-03-08T08:14:54;1.90;99.90
29363;DHT22;16349;53.672;10.014;2024-03-08T08:17:20;2.00;99.90
29363;DHT22;16349;53.672;10.014;2024-03-08T08:19:47;2.10;99.90
29363;DHT22;16349;53.672;10.014;2024-03-08T08:22:14;2.10;99.90
29363;DHT22;16349;53.672;10.014;2024-03-08T08:24:42;2.10;99.90
29363;DHT22;16349;53.672;10.014;2024-03-08T08:27:09;2.20;99.90
29363;DHT22;16349;53.672;10.014;2024-03-08T08:29:38;2.30;99.90
29363;DHT22;16349;53.672;10.014;2024-03-08T08:32:05;2.40;99.90
29363;DHT22;16349;53.672;10.014;2024-03-08T08:34:32;2.50;99.90
29363;DHT22;16349;53.672;10.014;2024-03-08T08:36:59;2.60;99.90
29363;DHT22;16349;53.672;10.014;2024-03-08T08:39:26;2.60;99.90
29363;DHT22;16349;53.672;10.014;2024-03-08T08:41:54;2.70;99.90
29363;DHT22;16349;53.672;10.014;2024-03-08T08:44:22;2.70;99.90
29363;DHT22;16349;53.672;10.014;2024-03-08T08:46:48;2.70;99.90
29363;DHT22;16349;53.672;10.014;2024-03-08T08:49:16;2.80;99.90
29363;DHT22;16349;53.672;10.014;2024-03-08T08:51:48;2.90;99.90
29363;DHT22;16349;53.672;10.014;2024-03-08T08:54:16;3.10;99.90
29363;DHT22;16349;53.672;10.014;2024-03-08T08:56:43;3.20;99.90
29363;DHT22;16349;53.672;10.014;2024-03-08T08:59:11;3.30;99.90
29363;DHT22;16349;53.672;10.014;2024-03-08T09:01:39;3.40;99.90
29363;DHT22;16349;53.672;10.014;2024-03-08T09:04:06;3.40;99.90
29363;DHT22;16349;53.672;10.014;2024-03-08T09:06:33;3.50;99.90
29363;DHT22;16349;53.672;10.014;2024-03-08T09:09:01;3.50;99.90
29363;DHT22;16349;53.672;10.014;2024-03-08T09:11:29;3.60;99.90
29363;DHT22;16349;53.672;10.014;2024-03-08T09:13:56;3.70;99.90
29363;DHT22;16349;53.672;10.014;2024-03-08T09:16:24;3.70;99.90
29363;DHT22;16349;53.672;10.014;2024-03-08T09:18:51;3.80;99.90
29363;DHT22;16349;53.672;10.014;2024-03-08T09:21:18;3.80;99.90
29363;DHT22;16349;53.672;10.014;2024-03-08T09:23:45;3.90;99.90
29363;DHT22;16349;53.672;10.014;2024-03-08T09:26:12;4.00;99.90
29363;DHT22;16349;53.672;10.014;2024-03-08T09:28:41;4.00;99.90
29363;DHT22;16349;53.672;10.014;2024-03-08T09:31:08;4.10;99.90
29363;DHT22;16349;53.672;10.014;2024-03-08T09:33:38;4.10;99.90
29363;DHT22;16349;53.672;10.014;2024-03-08T09:36:06;4.10;99.90
29363;DHT22;16349;53.672;10.014;2024-03-08T09:38:34;4.20;99.90
29363;DHT22;16349;53.672;10.014;2024-03-08T09:41:01;4.20;99.90
29363;DHT22;16349;53.672;10.014;2024-03-08T09:43:30;4.30;99.90
29363;DHT22;16349;53.672;10.014;2024-03-08T09:45:58;4.40;99.90
29363;DHT22;16349;53.672;10.014;2024-03-08T09:48:25;4.50;99.90
29363;DHT22;16349;53.672;10.014;2024-03-08T09:50:54;4.60;99.90
29363;DHT22;16349;53.672;10.014;2024-03-08T09:53:22;4.70;99.90
29363;DHT22;16349;53.672;10.014;2024-03-08T09:55:49;4.90;99.90
29363;DHT22;16349;53.672;10.014;2024-03-08T09:58:18;4.90;99.90
29363;DHT22;16349;53.672;10.014;2024-03-08T10:01:17;4.90;99.90
29363;DHT22;16349;53.672;10.014;2024-03-08T10:03:44;5.10;99.90
29363;DHT22;16349;53.672;10.014;2024-03-08T10:06:15;5.20;99.90
29363;DHT22;16349;53.672;10.014;2024-03-08T10:08:41;5.30;99.90
29363;DHT22;16349;53.672;10.014;2024-03-08T10:11:08;5.50;99.90
29363;DHT22;16349;53.672;10.014;2024-03-08T10:13:37;5.60;99.90
29363;DHT22;16349;53.672;10.014;2024-03-08T10:16:06;5.70;99.90
29363;DHT22;16349;53.672;10.014;2024-03-08T10:18:33;5.80;99.90
29363;DHT22;16349;53.672;10.014;2024-03-08T10:21:04;5.80;99.90
29363;DHT22;16349;53.672;10.014;2024-03-08T10:23:33;5.90;99.90
29363;DHT22;16349;53.672;10.014;2024-03-08T10:26:12;6.00;99.90
29363;DHT22;16349;53.672;10.014;2024-03-08T10:28:41;6.00;99.90
29363;DHT22;16349;53.672;10.014;2024-03-08T10:31:09;6.10;99.90
29363;DHT22;16349;53.672;10.014;2024-03-08T10:33:36;6.10;99.90
29363;DHT22;16349;53.672;10.014;2024-03-08T10:36:07;6.20;99.90
29363;DHT22;16349;53.672;10.014;2024-03-08T10:38:37;6.20;99.90
29363;DHT22;16349;53.672;10.014;2024-03-08T10:41:06;6.30;99.90
29363;DHT22;16349;53.672;10.014;2024-03-08T10:43:48;6.40;99.90
29363;DHT22;16349;53.672;10.014;2024-03-08T10:46:29;6.50;99.90
29363;DHT22;16349;53.672;10.014;2024-03-08T10:48:58;6.50;99.90
29363;DHT22;16349;53.672;10.014;2024-03-08T10:51:29;6.50;99.90
29363;DHT22;16349;53.672;10.014;2024-03-08T10:53:59;6.50;99.90
29363;DHT22;16349;53.672;10.014;2024-03-08T10:56:29;6.60;99.90
29363;DHT22;16349;53.672;10.014;2024-03-08T10:58:56;6.70;99.90
29363;DHT22;16349;53.672;10.014;2024-03-08T11:01:23;6.70;99.90
29363;DHT22;16349;53.672;10.014;2024-03-08T11:03:51;6.70;99.90
29363;DHT22;16349;53.672;10.014;2024-03-08T11:06:30;6.80;99.90
29363;DHT22;16349;53.672;10.014;2024-03-08T11:08:59;6.80;99.90
29363;DHT22;16349;53.672;10.014;2024-03-08T11:11:28;6.90;99.90
29363;DHT22;16349;53.672;10.014;2024-03-08T11:13:57;7.00;99.90
29363;DHT22;16349;53.672;10.014;2024-03-08T11:16:37;7.10;99.90
29363;DHT22;16349;53.672;10.014;2024-03-08T11:21:57;7.30;99.90
29363;DHT22;16349;53.672;10.014;2024-03-08T11:24:25;7.20;99.90
29363;DHT22;16349;53.672;10.014;2024-03-08T11:26:57;7.30;99.90
29363;DHT22;16349;53.672;10.014;2024-03-08T11:29:38;7.40;99.90
29363;DHT22;16349;53.672;10.014;2024-03-08T11:32:10;7.50;99.90
29363;DHT22;16349;53.672;10.014;2024-03-08T11:34:37;7.50;99.90
29363;DHT22;16349;53.672;10.014;2024-03-08T11:37:10;7.50;99.90
29363;DHT22;16349;53.672;10.014;2024-03-08T11:39:40;7.50;99.90
29363;DHT22;16349;53.672;10.014;2024-03-08T11:42:07;7.50;99.90
29363;DHT22;16349;53.672;10.014;2024-03-08T11:44:35;7.50;99.90
29363;DHT22;16349;53.672;10.014;2024-03-08T11:47:04;7.50;99.90
29363;DHT22;16349;53.672;10.014;2024-03-08T11:49:35;7.60;99.90
29363;DHT22;16349;53.672;10.014;2024-03-08T11:52:02;7.70;99.90
29363;DHT22;16349;53.672;10.014;2024-03-08T11:54:29;7.80;99.90
29363;DHT22;16349;53.672;10.014;2024-03-08T11:56:58;7.90;99.90
29363;DHT22;16349;53.672;10.014;2024-03-08T11:59:27;7.90;99.90
29363;DHT22;16349;53.672;10.014;2024-03-08T12:01:59;8.00;99.90
29363;DHT22;16349;53.672;10.014;2024-03-08T12:04:27;8.00;99.90
29363;DHT22;16349;53.672;10.014;2024-03-08T12:06:54;8.00;99.90
29363;DHT22;16349;53.672;10.014;2024-03-08T12:09:21;8.00;99.90
29363;DHT22;16349;53.672;10.014;2024-03-08T12:11:48;8.10;99.90
29363;DHT22;16349;53.672;10.014;2024-03-08T12:14:17;8.10;99.90
29363;DHT22;16349;53.672;10.014;2024-03-08T12:16:44;8.20;99.90
29363;DHT22;16349;53.672;10.014;2024-03-08T12:19:11;8.20;99.90
29363;DHT22;16349;53.672;10.014;2024-03-08T12:21:38;8.20;99.90
29363;DHT22;16349;53.672;10.014;2024-03-08T12:24:15;8.30;99.90
29363;DHT22;16349;53.672;10.014;2024-03-08T12:26:45;8.30;99.90
29363;DHT22;16349;53.672;10.014;2024-03-08T12:29:20;8.30;99.90
29363;DHT22;16349;53.672;10.014;2024-03-08T12:31:50;8.30;99.90
29363;DHT22;16349;53.672;10.014;2024-03-08T12:34:17;8.40;99.90
29363;DHT22;16349;53.672;10.014;2024-03-08T12:36:45;8.40;99.90
29363;DHT22;16349;53.672;10.014;2024-03-08T12:39:15;8.50;99.90
29363;DHT22;16349;53.672;10.014;2024-03-08T12:41:43;8.50;99.90
29363;DHT22;16349;53.672;10.014;2024-03-08T12:44:12;8.50;99.90
29363;DHT22;16349;53.672;10.014;2024-03-08T12:46:40;8.60;99.90
29363;DHT22;16349;53.672;10.014;2024-03-08T12:49:10;8.50;99.90
29363;DHT22;16349;53.672;10.014;2024-03-08T12:51:38;8.60;99.90
29363;DHT22;16349;53.672;10.014;2024-03-08T12:54:05;8.60;99.90
29363;DHT22;16349;53.672;10.014;2024-03-08T12:56:34;8.60;99.90
29363;DHT22;16349;53.672;10.014;2024-03-08T12:59:04;8.60;99.90
29363;DHT22;16349;53.672;10.014;2024-03-08T13:01:31;8.60;99.90
29363;DHT22;16349;53.672;10.014;2024-03-08T13:04:00;8.70;99.90
29363;DHT22;16349;53.672;10.014;2024-03-08T13:06:27;8.80;99.90
29363;DHT22;16349;53.672;10.014;2024-03-08T13:08:54;8.80;99.90
29363;DHT22;16349;53.672;10.014;2024-03-08T13:11:22;8.80;99.90
29363;DHT22;16349;53.672;10.014;2024-03-08T13:13:50;8.90;99.90
29363;DHT22;16349;53.672;10.014;2024-03-08T13:16:18;9.00;99.90
29363;DHT22;16349;53.672;10.014;2024-03-08T13:18:45;9.10;99.90
29363;DHT22;16349;53.672;10.014;2024-03-08T13:21:15;9.10;99.90
29363;DHT22;16349;53.672;10.014;2024-03-08T13:23:45;9.10;99.90
29363;DHT22;16349;53.672;10.014;2024-03-08T13:26:15;9.20;99.90
29363;DHT22;16349;53.672;10.014;2024-03-08T13:28:44;9.30;99.90
29363;DHT22;16349;53.672;10.014;2024-03-08T13:31:12;9.30;99.90
29363;DHT22;16349;53.672;10.014;2024-03-08T13:33:40;9.30;99.90
29363;DHT22;16349;53.672;10.014;2024-03-08T13:36:08;9.50;99.90
29363;DHT22;16349;53.672;10.014;2024-03-08T13:38:42;9.60;99.90
29363;DHT22;16349;53.672;10.014;2024-03-08T13:41:10;9.70;99.90
29363;DHT22;16349;53.672;10.014;2024-03-08T13:43:39;9.90;99.90
29363;DHT22;16349;53.672;10.014;2024-03-08T13:46:06;10.80;99.90
29363;DHT22;16349;53.672;10.014;2024-03-08T13:48:33;11.60;99.90
29363;DHT22;16349;53.672;10.014;2024-03-08T13:51:00;11.50;99.40
29363;DHT22;16349;53.672;10.014;2024-03-08T13:53:27;11.40;99.20
29363;DHT22;16349;53.672;10.014;2024-03-08T13:55:55;11.30;99.00
29363;DHT22;16349;53.672;10.014;2024-03-08T13:58:22;11.30;99.20
29363;DHT22;16349;53.672;10.014;2024-03-08T14:00:49;11.50;99.10
29363;DHT22;16349;53.672;10.014;2024-03-08T14:03:17;11.50;98.70
29363;DHT22;16349;53.672;10.014;2024-03-08T14:05:44;11.50;98.50
29363;DHT22;16349;53.672;10.014;2024-03-08T14:08:12;11.60;98.40
29363;DHT22;16349;53.672;10.014;2024-03-08T14:10:39;11.60;98.30
29363;DHT22;16349;53.672;10.014;2024-03-08T14:13:09;11.90;98.10
29363;DHT22;16349;53.672;10.014;2024-03-08T14:15:37;12.00;97.70
29363;DHT22;16349;53.672;10.014;2024-03-08T14:18:08;12.50;97.30
29363;DHT22;16349;53.672;10.014;2024-03-08T14:20:34;12.30;97.50
29363;DHT22;16349;53.672;10.014;2024-03-08T14:23:01;12.30;97.60
29363;DHT22;16349;53.672;10.014;2024-03-08T14:25:28;12.50;97.70
29363;DHT22;16349;53.672;10.014;2024-03-08T14:27:55;12.60;97.60
29363;DHT22;16349;53.672;10.014;2024-03-08T14:30:25;12.40;97.40
29363;DHT22;16349;53.672;10.014;2024-03-08T14:33:04;12.40;97.00
29363;DHT22;16349;53.672;10.014;2024-03-08T14:35:34;12.60;96.80
29363;DHT22;16349;53.672;10.014;2024-03-08T14:38:01;12.80;96.70
29363;DHT22;16349;53.672;10.014;2024-03-08T14:40:28;12.80;96.40
29363;DHT22;16349;53.672;10.014;2024-03-08T14:42:56;12.80;96.00
29363;DHT22;16349;53.672;10.014;2024-03-08T14:45:24;12.70;96.60
29363;DHT22;16349;53.672;10.014;2024-03-08T14:47:52;12.70;95.40
29363;DHT22;16349;53.672;10.014;2024-03-08T14:50:21;12.60;95.70
29363;DHT22;16349;53.672;10.014;2024-03-08T14:52:49;12.80;94.90
29363;DHT22;16349;53.672;10.014;2024-03-08T14:55:16;12.60;94.90
29363;DHT22;16349;53.672;10.014;2024-03-08T14:57:45;12.80;95.00
29363;DHT22;16349;53.672;10.014;2024-03-08T15:00:13;12.80;94.90
29363;DHT22;16349;53.672;10.014;2024-03-08T15:02:45;13.00;94.50
29363;DHT22;16349;53.672;10.014;2024-03-08T15:05:14;12.90;94.30
29363;DHT22;16349;53.672;10.014;2024-03-08T15:07:40;13.00;94.40
29363;DHT22;16349;53.672;10.014;2024-03-08T15:10:08;13.00;94.10
29363;DHT22;16349;53.672;10.014;2024-03-08T15:12:40;13.10;93.60
29363;DHT22;16349;53.672;10.014;2024-03-08T15:15:08;13.30;93.10
29363;DHT22;16349;53.672;10.014;2024-03-08T15:17:36;13.10;93.20
29363;DHT22;16349;53.672;10.014;2024-03-08T15:20:07;13.20;93.20
29363;DHT22;16349;53.672;10.014;2024-03-08T15:22:46;13.10;93.00
29363;DHT22;16349;53.672;10.014;2024-03-08T15:25:13;13.10;92.70
29363;DHT22;16349;53.672;10.014;2024-03-08T15:27:46;13.20;92.90
29363;DHT22;16349;53.672;10.014;2024-03-08T15:30:14;13.40;93.00
29363;DHT22;16349;53.672;10.014;2024-03-08T15:32:44;13.30;93.20
29363;DHT22;16349;53.672;10.014;2024-03-08T15:35:12;13.30;93.20
29363;DHT22;16349;53.672;10.014;2024-03-08T15:37:40;13.20;92.90